Aérodrome :
LOGIN :

S'inscrire | Disclaimer

   EN    FR    IT 

 










Légende :    VFR   VFR Marginal   IFR   IFR Intensif   IFR Très Intensif
Visi : 
Plafond : 
>= 8 km
>= 3000ft
5 à 8 km
1000 à 3000 ft
1500m à 5 km
500 à 1000 ft
800 à 1500m
200 à 500 ft
< 800m
< 200 ft
Symboles :   Orages  Brouillard  Fortes neiges  Fortes précipitations  Vent > 20 kt
SIGMETs :   Divers  Orages  Givrage  Turbulence  Onde Orograph.  Cendres Volcan.






- Altitude de l'aérodrome : 1708 ft
- Code IATA : SJJ


LQSA - Sarajevo

DERNIER METAR :
  • 200830Z 30003KT 7000 -SN OVC025 M01/M01 Q1040 NOSIG

METARs EXPIRÉS :
  • 200800Z 30002KT 7000 -SN OVC025 M01/M01 Q1040 NOSIG
  • 200730Z 00000KT 7000 OVC025 M02/M02 Q1039 NOSIG
  • 200700Z 00000KT 7000 OVC025 M02/M02 Q1039 NOSIG
  • 200630Z VRB01KT 7000 OVC027 M02/M02 Q1038 NOSIG
  • 200600Z 15001KT 8000 SCT026 OVC030 M02/M02 Q1038 NOSIG

TAF TAF LQSA
Valide du 20 à 06h jusqu'au 21 à 06h UTC


200500Z 2006/2106 02004KT 8000 BKN033 TX00/2013Z TNM08/2105Z
PROB30 2100/2106 0100 FZFG BKN001



MET'MAP, la Météo Aéronautique d'un coup d'oeil ! - Copyright ORBIFLY Décembre 2007 - Disclaimer

ORBIFLY MET'MAP TEAM :

Programmation & Développement : Alexandra Zaïnal
Sur une idée originale de : Baudouin d'Aumeries
Assistance à la programmation : Marc-Olivier Méhu
Soutien technique & logistique : Manuel Goepfert

Contact : metmap@orbifly.com




SOURCES & CREDITS :

   NOAA